createdAt,value
2022-09-22T00:01:18.660Z,5.77
2022-09-22T00:03:52.158Z,5.72
2022-09-22T00:06:22.496Z,5.70
2022-09-22T00:08:53.780Z,5.69
2022-09-22T00:11:28.505Z,5.67
2022-09-22T00:14:04.178Z,5.63
2022-09-22T00:16:34.326Z,5.63
2022-09-22T00:19:01.227Z,5.54
2022-09-22T00:21:28.088Z,5.33
2022-09-22T00:23:55.103Z,5.64
2022-09-22T00:26:23.749Z,5.64
2022-09-22T00:28:51.711Z,5.54
2022-09-22T00:31:22.021Z,5.51
2022-09-22T00:33:49.947Z,5.43
2022-09-22T00:36:18.297Z,5.50
2022-09-22T00:38:46.636Z,5.54
2022-09-22T00:41:25.299Z,5.57
2022-09-22T00:44:26.920Z,5.48
2022-09-22T00:47:19.232Z,5.37
2022-09-22T00:50:20.480Z,5.33
2022-09-22T00:52:52.854Z,5.29
2022-09-22T00:55:47.608Z,5.25
2022-09-22T00:58:18.217Z,5.23
2022-09-22T01:00:45.216Z,5.16
2022-09-22T01:03:16.958Z,5.08
2022-09-22T01:05:46.350Z,5.08
2022-09-22T01:08:13.924Z,4.94
2022-09-22T01:10:40.889Z,5.01
2022-09-22T01:13:36.628Z,4.93
2022-09-22T01:16:30.378Z,4.91
2022-09-22T01:19:21.301Z,4.79
2022-09-22T01:22:17.431Z,4.64
2022-09-22T01:25:30.341Z,4.60
2022-09-22T01:28:33.090Z,4.62
2022-09-22T01:31:06.585Z,4.56
2022-09-22T01:33:39.576Z,4.55
2022-09-22T01:36:32.364Z,4.52
2022-09-22T01:39:14.464Z,4.44
2022-09-22T01:42:03.265Z,4.46
2022-09-22T01:44:55.249Z,4.45
2022-09-22T01:47:32.466Z,4.47
2022-09-22T01:50:06.030Z,4.45
2022-09-22T01:52:35.634Z,4.47
2022-09-22T01:55:46.930Z,4.49
2022-09-22T01:58:20.591Z,4.26
2022-09-22T02:00:56.853Z,4.25
2022-09-22T02:04:05.100Z,4.30
2022-09-22T02:06:44.769Z,4.20
2022-09-22T02:09:15.591Z,4.15
2022-09-22T02:11:42.858Z,4.13
2022-09-22T02:14:09.955Z,4.12
2022-09-22T02:16:36.831Z,4.14
2022-09-22T02:19:12.534Z,4.07
2022-09-22T02:21:42.113Z,3.92
2022-09-22T02:24:44.705Z,3.84
2022-09-22T02:27:27.430Z,3.78
2022-09-22T02:30:02.030Z,3.70
2022-09-22T02:32:30.817Z,3.58
2022-09-22T02:34:57.756Z,3.55
2022-09-22T02:37:44.666Z,3.48
2022-09-22T02:40:26.500Z,3.43
2022-09-22T02:43:21.946Z,3.34
2022-09-22T02:46:22.740Z,3.18
2022-09-22T02:48:57.898Z,3.24
2022-09-22T02:51:24.772Z,3.18
2022-09-22T02:53:51.667Z,3.07
2022-09-22T02:56:18.505Z,3.17
2022-09-22T02:58:45.305Z,3.07
2022-09-22T03:01:12.116Z,2.96
2022-09-22T03:03:39.268Z,2.85
2022-09-22T03:06:06.630Z,2.82
2022-09-22T03:08:33.437Z,2.81
2022-09-22T03:11:00.353Z,2.79
2022-09-22T03:13:27.295Z,2.72
2022-09-22T03:15:54.454Z,2.72
2022-09-22T03:18:21.260Z,2.69
2022-09-22T03:20:48.159Z,2.67
2022-09-22T03:23:15.015Z,2.52
2022-09-22T03:25:41.976Z,2.55
2022-09-22T03:28:09.069Z,2.49
2022-09-22T03:30:37.380Z,2.41
2022-09-22T03:33:04.340Z,2.31
2022-09-22T03:35:31.022Z,2.31
2022-09-22T03:37:57.860Z,2.25
2022-09-22T03:40:24.744Z,2.24
2022-09-22T03:42:51.600Z,2.18
2022-09-22T03:45:18.438Z,2.27
2022-09-22T03:47:46.571Z,2.27
2022-09-22T03:50:14.173Z,2.24
2022-09-22T03:52:43.410Z,2.16
2022-09-22T03:55:10.836Z,2.27
2022-09-22T03:57:37.742Z,2.17
2022-09-22T04:00:05.860Z,2.23
2022-09-22T04:02:38.793Z,2.18
2022-09-22T04:05:05.972Z,1.99
2022-09-22T04:07:33.423Z,2.10
2022-09-22T04:10:00.166Z,2.17
2022-09-22T04:12:26.969Z,2.18
2022-09-22T04:14:53.771Z,2.23
2022-09-22T04:17:20.641Z,2.29
2022-09-22T04:19:47.942Z,2.32
2022-09-22T04:22:14.776Z,2.40
2022-09-22T04:24:41.571Z,2.34
2022-09-22T04:27:19.701Z,2.48
2022-09-22T04:29:47.668Z,2.46
2022-09-22T04:32:14.640Z,2.32
2022-09-22T04:34:41.563Z,2.36
2022-09-22T04:37:08.535Z,2.25
2022-09-22T04:39:36.650Z,2.21
2022-09-22T04:42:04.534Z,2.28
2022-09-22T04:44:34.943Z,2.24
2022-09-22T04:47:02.847Z,2.31
2022-09-22T04:49:29.819Z,2.39
2022-09-22T04:51:56.585Z,2.51
2022-09-22T04:54:23.720Z,2.66
2022-09-22T04:56:50.498Z,2.66
2022-09-22T04:59:17.395Z,2.79
2022-09-22T05:01:44.302Z,3.04
2022-09-22T05:04:11.080Z,3.13
2022-09-22T05:06:38.540Z,3.17
2022-09-22T05:09:05.375Z,3.42
2022-09-22T05:11:32.858Z,3.55
2022-09-22T05:14:00.089Z,3.71
2022-09-22T05:16:26.977Z,3.82
2022-09-22T05:18:53.970Z,3.96
2022-09-22T05:21:20.816Z,4.18
2022-09-22T05:23:47.627Z,4.20
2022-09-22T05:26:14.470Z,4.48
2022-09-22T05:28:41.480Z,4.70
2022-09-22T05:31:08.390Z,4.86
2022-09-22T05:33:35.264Z,5.00
2022-09-22T05:36:02.392Z,5.13
2022-09-22T05:38:29.895Z,5.29
2022-09-22T05:40:56.682Z,5.34
2022-09-22T05:43:23.487Z,5.52
2022-09-22T05:45:50.329Z,5.71
2022-09-22T05:48:17.223Z,5.77
2022-09-22T05:50:45.514Z,6.03
2022-09-22T05:53:13.303Z,6.20
2022-09-22T05:55:41.154Z,6.24
2022-09-22T05:58:11.852Z,6.30
2022-09-22T06:00:40.551Z,6.41
2022-09-22T06:03:07.687Z,6.50
2022-09-22T06:05:37.410Z,6.67
2022-09-22T06:08:06.516Z,6.83
2022-09-22T06:10:35.465Z,6.94
2022-09-22T06:13:04.559Z,7.00
2022-09-22T06:15:33.988Z,7.07
2022-09-22T06:18:01.355Z,7.32
2022-09-22T06:20:28.243Z,7.23
2022-09-22T06:22:56.679Z,7.17
2022-09-22T06:25:23.984Z,7.53
2022-09-22T06:28:05.280Z,7.53
2022-09-22T06:30:33.347Z,7.56
2022-09-22T06:33:00.314Z,7.50
2022-09-22T06:35:35.399Z,7.68
2022-09-22T06:38:02.422Z,7.88
2022-09-22T06:40:29.318Z,8.05
2022-09-22T06:43:07.552Z,8.19
2022-09-22T06:45:34.556Z,8.38
2022-09-22T06:48:02.786Z,8.39
2022-09-22T06:50:32.841Z,8.60
2022-09-22T06:53:04.312Z,8.60
2022-09-22T06:55:31.943Z,8.46
2022-09-22T06:58:00.388Z,8.57
2022-09-22T07:00:34.572Z,8.42
2022-09-22T07:03:20.671Z,8.40
2022-09-22T07:06:01.123Z,8.75
2022-09-22T07:08:30.032Z,8.92
2022-09-22T07:11:02.326Z,9.08
2022-09-22T07:13:31.104Z,9.25
2022-09-22T07:16:08.001Z,9.26
2022-09-22T07:18:36.106Z,9.38
2022-09-22T07:21:11.894Z,9.41
2022-09-22T07:23:39.511Z,9.53
2022-09-22T07:26:08.501Z,9.61
2022-09-22T07:28:36.724Z,9.72
2022-09-22T07:31:14.623Z,9.73
2022-09-22T07:33:43.531Z,9.81
2022-09-22T07:36:12.221Z,9.85
2022-09-22T07:38:40.529Z,9.86
2022-09-22T07:41:12.133Z,9.96
2022-09-22T07:43:40.428Z,10.19
2022-09-22T07:46:08.148Z,10.52
2022-09-22T07:48:37.470Z,10.54
2022-09-22T07:51:16.473Z,10.67
2022-09-22T07:53:45.925Z,10.85
2022-09-22T07:56:15.543Z,11.06
2022-09-22T07:58:48.146Z,10.75
2022-09-22T08:01:14.985Z,10.98
2022-09-22T08:03:42.030Z,11.17
2022-09-22T08:06:11.212Z,11.10
2022-09-22T08:08:40.088Z,10.94
2022-09-22T08:11:08.848Z,11.29
2022-09-22T08:13:37.028Z,11.58
2022-09-22T08:16:05.406Z,11.63
2022-09-22T08:18:36.276Z,11.90
2022-09-22T08:21:03.307Z,11.79
2022-09-22T08:23:31.586Z,11.82
2022-09-22T08:26:06.763Z,11.60
2022-09-22T08:28:34.342Z,11.82
2022-09-22T08:31:02.170Z,12.15
2022-09-22T08:33:32.316Z,12.17
2022-09-22T08:36:04.003Z,12.36
2022-09-22T08:38:33.841Z,12.71
2022-09-22T08:41:37.955Z,12.91
2022-09-22T08:44:28.752Z,13.12
2022-09-22T08:47:00.893Z,13.52
2022-09-22T08:49:57.046Z,13.68
2022-09-22T08:52:41.237Z,13.99
2022-09-22T08:55:20.358Z,14.15
2022-09-22T08:57:59.463Z,14.60
2022-09-22T09:00:32.863Z,14.54
2022-09-22T09:03:41.145Z,14.61
2022-09-22T09:06:34.670Z,14.77
2022-09-22T09:09:10.513Z,15.03
2022-09-22T09:12:06.860Z,15.17
2022-09-22T09:14:58.554Z,15.19
2022-09-22T09:17:29.624Z,15.09
2022-09-22T09:20:12.732Z,15.21
2022-09-22T09:22:48.876Z,15.52
2022-09-22T09:25:24.304Z,15.52
2022-09-22T09:28:00.386Z,15.45
2022-09-22T09:30:32.357Z,15.38
2022-09-22T09:33:02.661Z,15.54
2022-09-22T09:35:45.332Z,15.55
2022-09-22T09:38:15.913Z,15.64
2022-09-22T09:40:49.532Z,15.78
2022-09-22T09:43:16.713Z,16.02
2022-09-22T09:46:02.185Z,16.10
2022-09-22T09:49:05.630Z,15.80
2022-09-22T09:51:40.385Z,15.94
2022-09-22T09:54:13.155Z,15.96
2022-09-22T09:57:27.666Z,16.05
2022-09-22T10:00:33.689Z,16.22
2022-09-22T10:03:11.423Z,16.38
2022-09-22T10:05:38.179Z,16.43
2022-09-22T10:08:15.501Z,16.86
2022-09-22T10:10:45.618Z,17.46
2022-09-22T10:13:15.982Z,17.46
2022-09-22T10:16:01.972Z,17.09
2022-09-22T10:18:57.347Z,16.79
2022-09-22T10:21:26.804Z,16.61
2022-09-22T10:23:55.847Z,16.32
2022-09-22T10:26:31.148Z,15.57
2022-09-22T10:29:13.028Z,15.43
2022-09-22T10:31:41.888Z,15.56
2022-09-22T10:34:31.379Z,15.43
2022-09-22T10:37:00.837Z,15.59
2022-09-22T10:39:36.886Z,15.70
2022-09-22T10:42:12.661Z,15.69
2022-09-22T10:44:42.828Z,15.37
2022-09-22T10:47:32.974Z,15.43
2022-09-22T10:50:35.910Z,15.51
2022-09-22T10:53:31.597Z,15.98
2022-09-22T10:56:05.739Z,16.27
2022-09-22T10:58:32.372Z,16.40
2022-09-22T11:01:28.082Z,17.08
2022-09-22T11:04:35.421Z,17.14
2022-09-22T11:07:42.413Z,17.25
2022-09-22T11:10:57.585Z,17.25
2022-09-22T11:13:44.129Z,17.37
2022-09-22T11:16:55.015Z,17.24
2022-09-22T11:19:46.179Z,17.29
2022-09-22T11:22:30.115Z,17.56
2022-09-22T11:24:59.869Z,17.58
2022-09-22T11:27:53.582Z,17.84
2022-09-22T11:30:22.925Z,18.28
2022-09-22T11:33:02.302Z,18.03
2022-09-22T11:36:04.394Z,18.09
2022-09-22T11:39:00.212Z,17.96
2022-09-22T11:41:59.079Z,18.27
2022-09-22T11:44:50.737Z,18.45
2022-09-22T11:47:20.341Z,19.26
2022-09-22T11:50:05.338Z,19.27
2022-09-22T11:52:51.027Z,19.39
2022-09-22T11:55:47.150Z,19.03
2022-09-22T11:58:20.717Z,18.46
2022-09-22T12:00:54.951Z,18.61
2022-09-22T12:03:32.239Z,18.56
2022-09-22T12:06:05.330Z,18.52
2022-09-22T12:08:38.427Z,18.82
2022-09-22T12:11:08.133Z,18.64
2022-09-22T12:13:37.736Z,18.65
2022-09-22T12:16:19.843Z,18.71
2022-09-22T12:19:20.140Z,19.09
2022-09-22T12:21:50.066Z,19.18
2022-09-22T12:24:17.028Z,19.29
2022-09-22T12:26:46.361Z,19.58
2022-09-22T12:29:19.318Z,19.03
2022-09-22T12:31:49.158Z,18.57
2022-09-22T12:34:21.146Z,18.13
2022-09-22T12:36:52.685Z,18.44
2022-09-22T12:39:32.818Z,19.28
2022-09-22T12:42:02.426Z,19.61
2022-09-22T12:44:34.652Z,19.59
2022-09-22T12:47:05.878Z,19.85
2022-09-22T12:49:33.473Z,19.67
2022-09-22T12:52:00.690Z,19.46
2022-09-22T12:54:35.076Z,19.63
2022-09-22T12:57:08.887Z,20.05
2022-09-22T12:59:36.794Z,19.68
2022-09-22T13:02:15.967Z,19.63
2022-09-22T13:04:55.409Z,19.98
2022-09-22T13:07:41.230Z,20.61
2022-09-22T13:10:23.474Z,20.39
2022-09-22T13:13:11.260Z,20.37
2022-09-22T13:15:51.131Z,20.90
2022-09-22T13:18:26.913Z,20.62
2022-09-22T13:20:53.694Z,19.58
2022-09-22T13:23:21.712Z,18.90
2022-09-22T13:25:49.583Z,18.39
2022-09-22T13:28:25.151Z,18.02
2022-09-22T13:31:06.285Z,18.08
2022-09-22T13:33:36.097Z,17.91
2022-09-22T13:36:15.675Z,18.14
2022-09-22T13:38:51.264Z,19.34
2022-09-22T13:41:24.095Z,20.56
2022-09-22T13:43:58.018Z,21.06
2022-09-22T13:46:41.369Z,21.65
2022-09-22T13:49:16.975Z,21.74
2022-09-22T13:51:50.529Z,21.12
2022-09-22T13:54:25.022Z,21.33
2022-09-22T13:56:52.297Z,21.76
2022-09-22T13:59:19.131Z,22.78
2022-09-22T14:01:53.601Z,23.25
2022-09-22T14:04:25.662Z,23.05
2022-09-22T14:06:57.243Z,22.53
2022-09-22T14:09:25.787Z,22.75
2022-09-22T14:11:53.824Z,22.86
2022-09-22T14:14:25.888Z,22.11
2022-09-22T14:16:57.076Z,21.09
2022-09-22T14:19:35.652Z,20.00
2022-09-22T14:22:14.208Z,19.17
2022-09-22T14:24:47.156Z,18.24
2022-09-22T14:27:20.702Z,17.30
2022-09-22T14:29:50.998Z,16.40
2022-09-22T14:32:18.158Z,15.75
2022-09-22T14:34:49.427Z,15.58
2022-09-22T14:37:29.274Z,15.12
2022-09-22T14:39:58.009Z,14.94
2022-09-22T14:42:30.717Z,14.74
2022-09-22T14:45:35.567Z,14.77
2022-09-22T14:48:19.646Z,14.82
2022-09-22T14:51:02.051Z,14.65
2022-09-22T14:53:35.007Z,14.56
2022-09-22T14:56:11.508Z,14.36
2022-09-22T14:58:43.549Z,14.51
2022-09-22T15:01:50.514Z,14.47
2022-09-22T15:04:32.805Z,14.26
2022-09-22T15:06:59.505Z,14.47
2022-09-22T15:09:37.678Z,14.42
2022-09-22T15:12:05.487Z,14.43
2022-09-22T15:14:42.029Z,14.46
2022-09-22T15:17:59.277Z,14.37
2022-09-22T15:20:46.211Z,14.38
2022-09-22T15:23:28.571Z,14.42
2022-09-22T15:25:56.455Z,14.40
2022-09-22T15:28:25.208Z,14.39
2022-09-22T15:30:52.968Z,14.33
2022-09-22T15:33:21.449Z,14.27
2022-09-22T15:35:53.097Z,14.39
2022-09-22T15:38:31.456Z,14.78
2022-09-22T15:40:59.731Z,14.77
2022-09-22T15:43:31.021Z,14.74
2022-09-22T15:46:04.434Z,14.69
2022-09-22T15:48:40.127Z,14.62
2022-09-22T15:51:12.907Z,14.56
2022-09-22T15:53:42.700Z,14.51
2022-09-22T15:56:19.315Z,14.40
2022-09-22T15:58:55.872Z,14.31
2022-09-22T16:01:25.065Z,14.21
2022-09-22T16:04:05.593Z,14.13
2022-09-22T16:06:32.758Z,14.04
2022-09-22T16:08:59.620Z,13.88
2022-09-22T16:11:30.379Z,13.84
2022-09-22T16:14:03.583Z,13.74
2022-09-22T16:16:33.025Z,13.62
2022-09-22T16:19:00.533Z,13.53
2022-09-22T16:21:29.843Z,13.43
2022-09-22T16:24:03.429Z,13.31
2022-09-22T16:26:31.915Z,13.17
2022-09-22T16:28:59.541Z,13.03
2022-09-22T16:31:27.206Z,12.89
2022-09-22T16:34:04.830Z,12.62
2022-09-22T16:36:34.031Z,12.32
2022-09-22T16:39:02.032Z,12.24
2022-09-22T16:41:33.662Z,12.16
2022-09-22T16:44:01.452Z,12.05
2022-09-22T16:46:34.748Z,11.83
2022-09-22T16:49:07.651Z,11.83
2022-09-22T16:51:37.006Z,11.66
2022-09-22T16:54:05.738Z,11.62
2022-09-22T16:56:35.501Z,11.58
2022-09-22T16:59:03.172Z,11.53
2022-09-22T17:01:31.772Z,11.38
2022-09-22T17:03:59.175Z,11.29
2022-09-22T17:06:26.698Z,11.28
2022-09-22T17:08:57.162Z,11.14
2022-09-22T17:11:34.661Z,11.15
2022-09-22T17:14:05.578Z,11.09
2022-09-22T17:16:38.581Z,11.04
2022-09-22T17:19:07.911Z,10.97
2022-09-22T17:21:37.261Z,10.93
2022-09-22T17:24:05.816Z,10.89
2022-09-22T17:26:47.361Z,10.78
2022-09-22T17:29:18.814Z,10.62
2022-09-22T17:31:49.343Z,10.62
2022-09-22T17:34:16.137Z,10.50
2022-09-22T17:36:42.909Z,10.48
2022-09-22T17:39:10.733Z,10.41
2022-09-22T17:41:45.495Z,10.23
2022-09-22T17:44:13.830Z,10.07
2022-09-22T17:47:00.560Z,10.09
2022-09-22T17:49:46.373Z,10.05
2022-09-22T17:52:34.395Z,9.91
2022-09-22T17:55:14.318Z,9.81
2022-09-22T17:57:43.864Z,9.72
2022-09-22T18:00:16.912Z,9.66
2022-09-22T18:02:43.932Z,9.62
2022-09-22T18:05:13.676Z,9.50
2022-09-22T18:07:42.056Z,9.49
2022-09-22T18:10:11.114Z,9.44
2022-09-22T18:12:37.931Z,9.25
2022-09-22T18:15:07.209Z,9.12
2022-09-22T18:17:42.955Z,9.22
2022-09-22T18:20:15.154Z,9.19
2022-09-22T18:22:48.106Z,9.17
2022-09-22T18:25:19.496Z,9.08
2022-09-22T18:27:48.638Z,8.94
2022-09-22T18:30:17.672Z,8.90
2022-09-22T18:32:44.461Z,8.86
2022-09-22T18:35:12.985Z,8.74
2022-09-22T18:37:40.377Z,8.70
2022-09-22T18:40:08.068Z,8.69
2022-09-22T18:42:36.779Z,8.72
2022-09-22T18:45:04.117Z,8.63
2022-09-22T18:47:30.857Z,8.71
2022-09-22T18:49:59.280Z,8.76
2022-09-22T18:52:26.274Z,8.61
2022-09-22T18:54:54.220Z,8.57
2022-09-22T18:57:23.112Z,8.52
2022-09-22T18:59:51.124Z,8.44
2022-09-22T19:02:21.687Z,8.35
2022-09-22T19:04:49.250Z,8.29
2022-09-22T19:07:38.946Z,8.17
2022-09-22T19:10:11.931Z,8.13
2022-09-22T19:12:41.903Z,8.12
2022-09-22T19:15:16.737Z,8.02
2022-09-22T19:17:45.527Z,8.06
2022-09-22T19:20:21.379Z,8.00
2022-09-22T19:22:50.327Z,7.95
2022-09-22T19:25:18.052Z,7.94
2022-09-22T19:27:44.897Z,7.94
2022-09-22T19:30:12.302Z,7.89
2022-09-22T19:32:40.941Z,7.88
2022-09-22T19:35:08.708Z,7.87
2022-09-22T19:37:36.501Z,7.95
2022-09-22T19:40:06.289Z,7.88
2022-09-22T19:42:39.986Z,7.92
2022-09-22T19:45:08.527Z,7.93
2022-09-22T19:47:35.338Z,7.97
2022-09-22T19:50:02.277Z,8.06
2022-09-22T19:52:29.636Z,8.11
2022-09-22T19:54:56.903Z,8.07
2022-09-22T19:57:24.168Z,8.14
2022-09-22T19:59:51.025Z,8.21
2022-09-22T20:02:20.832Z,8.24
2022-09-22T20:04:47.658Z,8.30
2022-09-22T20:07:14.663Z,8.32
2022-09-22T20:09:41.726Z,8.28
2022-09-22T20:12:08.548Z,8.20
2022-09-22T20:14:35.553Z,8.18
2022-09-22T20:17:06.797Z,8.07
2022-09-22T20:19:36.109Z,8.00
2022-09-22T20:22:27.758Z,8.17
2022-09-22T20:24:57.504Z,8.17
2022-09-22T20:27:29.628Z,8.19
2022-09-22T20:29:57.619Z,8.08
2022-09-22T20:32:34.737Z,8.13
2022-09-22T20:35:01.799Z,8.18
2022-09-22T20:37:30.102Z,8.21
2022-09-22T20:39:57.550Z,8.20
2022-09-22T20:42:24.637Z,8.17
2022-09-22T20:44:51.626Z,8.14
2022-09-22T20:47:21.291Z,8.10
2022-09-22T20:49:51.796Z,8.03
2022-09-22T20:52:20.230Z,8.02
2022-09-22T20:54:47.999Z,7.99
2022-09-22T20:57:15.407Z,7.96
2022-09-22T20:59:45.249Z,7.89
2022-09-22T21:02:15.257Z,7.72
2022-09-22T21:04:42.564Z,7.89
2022-09-22T21:07:11.281Z,7.77
2022-09-22T21:09:56.680Z,7.73
2022-09-22T21:12:30.055Z,7.78
2022-09-22T21:14:58.114Z,7.74
2022-09-22T21:17:25.094Z,7.68
2022-09-22T21:19:51.854Z,7.64
2022-09-22T21:22:21.254Z,7.62
2022-09-22T21:24:48.833Z,7.58
2022-09-22T21:27:15.779Z,7.57
2022-09-22T21:29:42.838Z,7.55
2022-09-22T21:32:09.880Z,7.46
2022-09-22T21:34:36.795Z,7.30
2022-09-22T21:37:04.637Z,7.33
2022-09-22T21:39:31.361Z,7.30
2022-09-22T21:41:58.406Z,7.26
2022-09-22T21:44:25.153Z,7.21
2022-09-22T21:46:51.929Z,7.15
2022-09-22T21:49:18.750Z,7.10
2022-09-22T21:51:47.442Z,7.06
2022-09-22T21:54:18.703Z,7.02
2022-09-22T21:56:46.376Z,6.97
2022-09-22T21:59:14.127Z,6.91
2022-09-22T22:01:42.228Z,6.93
2022-09-22T22:04:10.407Z,6.88
2022-09-22T22:06:40.269Z,6.91
2022-09-22T22:09:15.243Z,6.91
2022-09-22T22:11:43.639Z,6.94
2022-09-22T22:14:12.490Z,6.96
2022-09-22T22:16:47.574Z,7.02
2022-09-22T22:19:17.752Z,7.04
2022-09-22T22:21:45.281Z,7.04
2022-09-22T22:24:32.991Z,7.03
2022-09-22T22:27:09.744Z,7.04
2022-09-22T22:29:38.513Z,7.10
2022-09-22T22:32:08.834Z,7.03
2022-09-22T22:34:35.735Z,7.08
2022-09-22T22:37:03.997Z,7.02
2022-09-22T22:39:30.873Z,7.09
2022-09-22T22:41:57.668Z,7.00
2022-09-22T22:44:24.369Z,6.90
2022-09-22T22:46:51.263Z,6.84
2022-09-22T22:49:18.124Z,6.84
2022-09-22T22:51:44.956Z,6.76
2022-09-22T22:54:13.336Z,6.70
2022-09-22T22:56:42.364Z,6.39
2022-09-22T22:59:10.457Z,6.51
2022-09-22T23:01:37.604Z,6.59
2022-09-22T23:04:06.782Z,6.60
2022-09-22T23:06:36.322Z,6.60
2022-09-22T23:09:04.408Z,6.56
2022-09-22T23:11:36.005Z,6.52
2022-09-22T23:14:05.400Z,6.50
2022-09-22T23:16:43.480Z,6.32
2022-09-22T23:19:13.259Z,6.24
2022-09-22T23:21:40.656Z,6.09
2022-09-22T23:24:08.408Z,6.20
2022-09-22T23:26:37.293Z,6.20
2022-09-22T23:29:05.078Z,6.15
2022-09-22T23:31:32.242Z,6.06
2022-09-22T23:33:59.270Z,5.83
2022-09-22T23:36:28.216Z,5.75
2022-09-22T23:38:56.942Z,5.73
2022-09-22T23:41:24.182Z,5.62
2022-09-22T23:43:51.139Z,5.50
2022-09-22T23:46:18.242Z,5.47
2022-09-22T23:48:45.199Z,5.40
2022-09-22T23:51:12.011Z,5.23
2022-09-22T23:53:39.272Z,5.07
2022-09-22T23:56:07.176Z,4.96
2022-09-22T23:58:34.697Z,4.88
